createdAt,value
2023-03-24T00:00:10.179Z,0.00
2023-03-24T00:01:10.214Z,0.00
2023-03-24T00:02:10.212Z,0.00
2023-03-24T00:03:10.255Z,0.00
2023-03-24T00:04:10.205Z,0.00
2023-03-24T00:05:10.120Z,0.00
2023-03-24T00:06:10.120Z,0.00
2023-03-24T00:07:10.113Z,0.00
2023-03-24T00:08:10.092Z,0.00
2023-03-24T00:09:10.085Z,0.00
2023-03-24T00:10:10.064Z,0.00
2023-03-24T00:11:10.068Z,0.00
2023-03-24T00:12:10.049Z,0.00
2023-03-24T00:13:10.054Z,0.00
2023-03-24T00:14:10.023Z,0.00
2023-03-24T00:15:10.049Z,0.00
2023-03-24T00:16:10.101Z,0.00
2023-03-24T00:17:10.017Z,0.00
2023-03-24T00:18:10.007Z,0.00
2023-03-24T00:19:09.966Z,0.00
2023-03-24T00:20:09.978Z,0.00
2023-03-24T00:21:09.952Z,0.00
2023-03-24T00:22:09.946Z,0.00
2023-03-24T00:23:10.425Z,0.00
2023-03-24T00:24:09.922Z,0.00
2023-03-24T00:25:10.006Z,0.00
2023-03-24T00:26:09.912Z,0.00
2023-03-24T00:27:09.884Z,0.00
2023-03-24T00:28:09.882Z,0.00
2023-03-24T00:29:09.869Z,0.00
2023-03-24T00:30:09.857Z,0.00
2023-03-24T00:31:09.897Z,0.00
2023-03-24T00:32:09.825Z,0.00
2023-03-24T00:33:09.953Z,0.00
2023-03-24T00:34:09.802Z,0.00
2023-03-24T00:35:10.431Z,0.00
2023-03-24T00:36:09.848Z,0.00
2023-03-24T00:37:09.798Z,0.00
2023-03-24T00:38:09.773Z,0.00
2023-03-24T00:39:09.748Z,0.00
2023-03-24T00:40:09.736Z,0.00
2023-03-24T00:41:09.758Z,0.00
2023-03-24T00:42:09.717Z,0.00
2023-03-24T00:43:09.721Z,0.00
2023-03-24T00:44:09.695Z,0.00
2023-03-24T00:45:09.678Z,0.00
2023-03-24T00:46:09.666Z,0.00
2023-03-24T00:47:09.666Z,0.00
2023-03-24T00:48:09.748Z,0.00
2023-03-24T00:49:09.651Z,0.00
2023-03-24T00:50:09.622Z,0.00
2023-03-24T00:51:09.626Z,0.00
2023-03-24T00:52:09.635Z,0.00
2023-03-24T00:53:09.639Z,0.00
2023-03-24T00:54:09.627Z,0.00
2023-03-24T00:55:09.568Z,0.00
2023-03-24T00:56:09.554Z,0.00
2023-03-24T00:57:09.582Z,0.00
2023-03-24T00:58:09.535Z,0.00
2023-03-24T00:59:09.544Z,0.00
2023-03-24T01:00:09.533Z,0.00
2023-03-24T01:01:09.652Z,0.00
2023-03-24T01:02:09.541Z,0.00
2023-03-24T01:03:09.501Z,0.00
2023-03-24T01:04:09.463Z,0.00
2023-03-24T01:05:09.460Z,0.00
2023-03-24T01:06:09.649Z,0.00
2023-03-24T01:07:09.441Z,0.00
2023-03-24T01:08:09.482Z,0.00
2023-03-24T01:09:09.402Z,0.00
2023-03-24T01:10:09.403Z,0.00
2023-03-24T01:11:09.479Z,0.00
2023-03-24T01:12:09.373Z,0.00
2023-03-24T01:13:09.573Z,0.00
2023-03-24T01:14:09.369Z,0.00
2023-03-24T01:15:09.339Z,0.00
2023-03-24T01:16:09.341Z,0.00
2023-03-24T01:17:09.317Z,0.00
2023-03-24T01:18:09.325Z,0.00
2023-03-24T01:19:09.518Z,0.00
2023-03-24T01:20:09.287Z,0.00
2023-03-24T01:21:09.271Z,0.00
2023-03-24T01:22:09.272Z,0.00
2023-03-24T01:23:09.246Z,0.00
2023-03-24T01:24:09.253Z,0.00
2023-03-24T01:25:09.226Z,0.00
2023-03-24T01:26:09.216Z,0.00
2023-03-24T01:27:09.220Z,0.00
2023-03-24T01:28:09.193Z,0.00
2023-03-24T01:29:09.176Z,0.00
2023-03-24T01:30:09.270Z,0.00
2023-03-24T01:31:09.169Z,0.00
2023-03-24T01:32:09.166Z,0.00
2023-03-24T01:33:09.141Z,0.00
2023-03-24T01:34:09.132Z,0.00
2023-03-24T01:35:09.414Z,0.00
2023-03-24T01:36:09.180Z,0.00
2023-03-24T01:37:09.943Z,0.00
2023-03-24T01:38:09.088Z,0.00
2023-03-24T01:39:09.069Z,0.00
2023-03-24T01:40:09.079Z,0.00
2023-03-24T01:41:09.060Z,0.00
2023-03-24T01:42:09.093Z,0.00
2023-03-24T01:43:09.024Z,0.00
2023-03-24T01:44:09.020Z,0.00
2023-03-24T01:45:09.034Z,0.00
2023-03-24T01:46:09.066Z,0.00
2023-03-24T01:47:09.247Z,0.00
2023-03-24T01:48:09.047Z,0.00
2023-03-24T01:49:08.965Z,0.00
2023-03-24T01:50:08.986Z,0.00
2023-03-24T01:51:08.947Z,0.00
2023-03-24T01:52:08.926Z,0.00
2023-03-24T01:53:08.948Z,0.00
2023-03-24T01:54:08.905Z,0.00
2023-03-24T01:55:08.905Z,0.00
2023-03-24T01:56:08.899Z,0.00
2023-03-24T01:57:08.966Z,0.00
2023-03-24T01:58:08.873Z,0.00
2023-03-24T01:59:08.848Z,0.00
2023-03-24T02:00:08.861Z,0.00
2023-03-24T02:01:08.895Z,0.00
2023-03-24T02:02:08.814Z,0.00
2023-03-24T02:03:08.804Z,0.00
2023-03-24T02:04:08.892Z,0.00
2023-03-24T02:05:08.807Z,0.00
2023-03-24T02:06:08.775Z,0.00
2023-03-24T02:07:08.756Z,0.00
2023-03-24T02:08:08.757Z,0.00
2023-03-24T02:09:08.733Z,0.00
2023-03-24T02:10:08.765Z,0.00
2023-03-24T02:11:08.746Z,0.00
2023-03-24T02:12:08.720Z,0.00
2023-03-24T02:13:08.690Z,0.00
2023-03-24T02:14:08.689Z,0.00
2023-03-24T02:15:08.671Z,0.00
2023-03-24T02:16:08.752Z,0.00
2023-03-24T02:17:08.663Z,0.00
2023-03-24T02:18:08.705Z,0.00
2023-03-24T02:19:08.624Z,0.00
2023-03-24T02:20:08.631Z,0.00
2023-03-24T02:21:08.619Z,0.00
2023-03-24T02:22:08.597Z,0.00
2023-03-24T02:23:08.584Z,0.00
2023-03-24T02:24:08.570Z,0.00
2023-03-24T02:25:08.610Z,0.00
2023-03-24T02:26:08.544Z,0.00
2023-03-24T02:27:08.551Z,0.00
2023-03-24T02:28:08.543Z,0.00
2023-03-24T02:29:08.533Z,0.00
2023-03-24T02:30:08.698Z,0.00
2023-03-24T02:31:08.501Z,0.00
2023-03-24T02:32:08.617Z,0.00
2023-03-24T02:33:08.549Z,0.00
2023-03-24T02:34:08.461Z,0.00
2023-03-24T02:35:08.471Z,0.00
2023-03-24T02:36:08.575Z,0.00
2023-03-24T02:37:08.429Z,0.00
2023-03-24T02:38:08.429Z,0.00
2023-03-24T02:39:08.416Z,0.00
2023-03-24T02:40:08.394Z,0.00
2023-03-24T02:41:08.430Z,0.00
2023-03-24T02:42:08.400Z,0.00
2023-03-24T02:43:08.373Z,0.00
2023-03-24T02:44:08.415Z,0.00
2023-03-24T02:45:08.346Z,0.00
2023-03-24T02:46:08.377Z,0.00
2023-03-24T02:47:08.318Z,0.00
2023-03-24T02:48:09.986Z,0.00
2023-03-24T02:49:08.303Z,0.00
2023-03-24T02:50:08.275Z,0.00
2023-03-24T02:51:08.278Z,0.00
2023-03-24T02:52:08.287Z,0.00
2023-03-24T02:53:08.241Z,0.00
2023-03-24T02:54:08.232Z,0.00
2023-03-24T02:55:08.239Z,0.00
2023-03-24T02:56:08.206Z,0.00
2023-03-24T02:57:08.253Z,0.00
2023-03-24T02:58:08.195Z,0.00
2023-03-24T02:59:08.177Z,0.00
2023-03-24T03:00:08.197Z,0.00
2023-03-24T03:01:08.194Z,0.00
2023-03-24T03:02:08.162Z,0.00
2023-03-24T03:03:08.137Z,0.00
2023-03-24T03:04:08.153Z,0.00
2023-03-24T03:05:08.262Z,0.00
2023-03-24T03:06:08.201Z,0.00
2023-03-24T03:07:08.177Z,0.00
2023-03-24T03:08:08.291Z,0.00
2023-03-24T03:09:08.236Z,0.00
2023-03-24T03:10:08.208Z,0.00
2023-03-24T03:11:08.146Z,0.00
2023-03-24T03:12:08.156Z,0.00
2023-03-24T03:13:08.095Z,0.00
2023-03-24T03:14:08.973Z,0.00
2023-03-24T03:15:08.977Z,0.00
2023-03-24T03:16:08.077Z,0.00
2023-03-24T03:17:08.069Z,0.00
2023-03-24T03:18:08.597Z,0.00
2023-03-24T03:19:08.470Z,0.00
2023-03-24T03:20:08.097Z,0.00
2023-03-24T03:21:07.993Z,0.00
2023-03-24T03:22:07.942Z,0.00
2023-03-24T03:23:08.040Z,0.00
2023-03-24T03:24:07.945Z,0.00
2023-03-24T03:25:07.895Z,0.00
2023-03-24T03:26:07.920Z,0.00
2023-03-24T03:27:07.871Z,0.00
2023-03-24T03:28:07.936Z,0.00
2023-03-24T03:29:07.857Z,0.00
2023-03-24T03:30:07.831Z,0.00
2023-03-24T03:31:07.868Z,0.00
2023-03-24T03:32:08.135Z,0.00
2023-03-24T03:33:07.867Z,0.00
2023-03-24T03:34:07.816Z,0.00
2023-03-24T03:35:07.787Z,0.00
2023-03-24T03:36:07.798Z,0.00
2023-03-24T03:37:07.788Z,0.00
2023-03-24T03:38:07.757Z,0.00
2023-03-24T03:39:07.737Z,0.00
2023-03-24T03:40:07.740Z,0.00
2023-03-24T03:41:07.733Z,0.00
2023-03-24T03:42:07.740Z,0.00
2023-03-24T03:43:07.715Z,0.00
2023-03-24T03:44:07.672Z,0.00
2023-03-24T03:45:07.682Z,0.00
2023-03-24T03:46:07.667Z,0.00
2023-03-24T03:47:07.647Z,0.00
2023-03-24T03:48:07.713Z,0.00
2023-03-24T03:49:07.632Z,0.00
2023-03-24T03:50:07.710Z,0.00
2023-03-24T03:51:14.010Z,0.00
2023-03-24T03:52:08.594Z,0.00
2023-03-24T03:53:07.713Z,0.00
2023-03-24T03:54:07.566Z,0.00
2023-03-24T03:55:07.565Z,0.00
2023-03-24T03:56:07.598Z,0.00
2023-03-24T03:57:07.621Z,0.00
2023-03-24T03:58:07.619Z,0.00
2023-03-24T03:59:07.563Z,0.00
2023-03-24T04:00:07.533Z,0.00
2023-03-24T04:01:07.541Z,0.00
2023-03-24T04:02:07.549Z,0.00
2023-03-24T04:03:07.634Z,0.00
2023-03-24T04:04:07.534Z,0.00
2023-03-24T04:05:07.444Z,0.00
2023-03-24T04:06:07.480Z,0.00
2023-03-24T04:07:07.429Z,0.00
2023-03-24T04:08:07.419Z,0.00
2023-03-24T04:09:07.414Z,0.00
2023-03-24T04:10:07.390Z,0.00
2023-03-24T04:11:07.371Z,0.00
2023-03-24T04:12:07.415Z,0.00
2023-03-24T04:13:07.353Z,0.00
2023-03-24T04:14:07.346Z,0.00
2023-03-24T04:15:07.349Z,0.00
2023-03-24T04:16:07.370Z,0.00
2023-03-24T04:17:07.678Z,0.00
2023-03-24T04:18:07.318Z,0.00
2023-03-24T04:19:07.291Z,0.00
2023-03-24T04:20:07.322Z,0.00
2023-03-24T04:21:07.263Z,0.00
2023-03-24T04:22:07.280Z,0.00
2023-03-24T04:23:07.263Z,0.00
2023-03-24T04:24:07.316Z,0.00
2023-03-24T04:25:07.219Z,0.00
2023-03-24T04:26:07.209Z,0.00
2023-03-24T04:27:07.209Z,0.00
2023-03-24T04:28:07.197Z,0.00
2023-03-24T04:29:07.180Z,0.00
2023-03-24T04:30:07.154Z,0.00
2023-03-24T04:31:07.182Z,0.00
2023-03-24T04:32:07.145Z,0.00
2023-03-24T04:33:07.179Z,0.00
2023-03-24T04:34:07.112Z,4.00
2023-03-24T04:35:07.122Z,4.00
2023-03-24T04:36:07.214Z,4.00
2023-03-24T04:37:07.088Z,4.00
2023-03-24T04:38:07.068Z,4.00
2023-03-24T04:39:07.077Z,8.00
2023-03-24T04:40:07.078Z,8.00
2023-03-24T04:41:07.046Z,8.00
2023-03-24T04:42:07.034Z,12.00
2023-03-24T04:43:07.016Z,16.00
2023-03-24T04:44:07.022Z,16.00
2023-03-24T04:45:06.998Z,20.00
2023-03-24T04:46:07.033Z,20.00
2023-03-24T04:47:06.985Z,20.00
2023-03-24T04:48:06.976Z,20.00
2023-03-24T04:49:06.947Z,20.00
2023-03-24T04:50:06.946Z,20.00
2023-03-24T04:51:06.937Z,24.00
2023-03-24T04:52:06.946Z,32.00
2023-03-24T04:53:07.500Z,36.00
2023-03-24T04:54:06.916Z,32.00
2023-03-24T04:55:06.936Z,36.00
2023-03-24T04:56:06.867Z,40.00
2023-03-24T04:57:06.929Z,44.00
2023-03-24T04:58:06.869Z,48.00
2023-03-24T04:59:06.850Z,56.00
2023-03-24T05:00:06.862Z,64.00
2023-03-24T05:01:06.844Z,64.00
2023-03-24T05:02:06.831Z,72.00
2023-03-24T05:03:06.842Z,84.00
2023-03-24T05:04:06.796Z,88.00
2023-03-24T05:05:06.821Z,96.00
2023-03-24T05:06:06.767Z,112.00
2023-03-24T05:07:07.058Z,124.00
2023-03-24T05:08:06.743Z,148.00
2023-03-24T05:09:06.717Z,180.00
2023-03-24T05:10:06.709Z,200.00
2023-03-24T05:11:06.713Z,192.00
2023-03-24T05:12:06.708Z,184.00
2023-03-24T05:13:06.674Z,188.00
2023-03-24T05:14:06.664Z,196.00
2023-03-24T05:15:06.680Z,208.00
2023-03-24T05:16:06.650Z,224.00
2023-03-24T05:17:06.642Z,248.00
2023-03-24T05:18:06.649Z,276.00
2023-03-24T05:19:06.626Z,328.00
2023-03-24T05:20:06.611Z,400.00
2023-03-24T05:21:06.609Z,464.00
2023-03-24T05:22:06.573Z,480.00
2023-03-24T05:23:06.557Z,456.00
2023-03-24T05:24:06.570Z,476.00
2023-03-24T05:25:06.543Z,592.00
2023-03-24T05:26:06.548Z,768.00
2023-03-24T05:27:06.532Z,900.00
2023-03-24T05:28:06.503Z,968.00
2023-03-24T05:29:06.498Z,1056.00
2023-03-24T05:30:06.494Z,1148.00
2023-03-24T05:31:07.023Z,1240.00
2023-03-24T05:32:06.463Z,1328.00
2023-03-24T05:33:06.503Z,1392.00
2023-03-24T05:34:06.436Z,1400.00
2023-03-24T05:35:06.462Z,1356.00
2023-03-24T05:36:06.463Z,1276.00
2023-03-24T05:37:06.405Z,1148.00
2023-03-24T05:38:06.427Z,1052.00
2023-03-24T05:39:06.443Z,1008.00
2023-03-24T05:40:06.390Z,996.00
2023-03-24T05:41:06.425Z,968.00
2023-03-24T05:42:06.397Z,912.00
2023-03-24T05:43:07.061Z,876.00
2023-03-24T05:44:06.357Z,896.00
2023-03-24T05:45:06.322Z,944.00
2023-03-24T05:46:06.319Z,992.00
2023-03-24T05:47:06.289Z,1004.00
2023-03-24T05:48:06.357Z,988.00
2023-03-24T05:49:06.285Z,964.00
2023-03-24T05:50:06.284Z,920.00
2023-03-24T05:51:06.244Z,872.00
2023-03-24T05:52:06.231Z,820.00
2023-03-24T05:53:06.228Z,764.00
2023-03-24T05:54:06.384Z,692.00
2023-03-24T05:55:06.230Z,588.00
2023-03-24T05:56:06.216Z,540.00
2023-03-24T05:57:06.254Z,540.00
2023-03-24T05:58:06.169Z,540.00
2023-03-24T05:59:06.160Z,520.00
2023-03-24T06:00:06.284Z,500.00
2023-03-24T06:01:06.153Z,516.00
2023-03-24T06:02:06.174Z,556.00
2023-03-24T06:03:06.483Z,552.00
2023-03-24T06:04:06.187Z,512.00
2023-03-24T06:05:06.102Z,456.00
2023-03-24T06:06:06.103Z,432.00
2023-03-24T06:07:06.070Z,468.00
2023-03-24T06:08:06.057Z,432.00
2023-03-24T06:09:06.061Z,416.00
2023-03-24T06:10:06.042Z,404.00
2023-03-24T06:11:06.039Z,524.00
2023-03-24T06:12:06.033Z,848.00
2023-03-24T06:13:05.998Z,1232.00
2023-03-24T06:14:06.006Z,1548.00
2023-03-24T06:15:06.002Z,1496.00
2023-03-24T06:16:05.979Z,1236.00
2023-03-24T06:17:05.953Z,932.00
2023-03-24T06:18:05.965Z,924.00
2023-03-24T06:19:05.930Z,1076.00
2023-03-24T06:20:05.946Z,1272.00
2023-03-24T06:21:05.977Z,1340.00
2023-03-24T06:22:05.900Z,1256.00
2023-03-24T06:23:05.903Z,1024.00
2023-03-24T06:24:05.879Z,820.00
2023-03-24T06:25:05.877Z,736.00
2023-03-24T06:26:05.850Z,784.00
2023-03-24T06:27:05.841Z,1008.00
2023-03-24T06:28:05.954Z,1352.00
2023-03-24T06:29:05.821Z,1608.00
2023-03-24T06:30:05.834Z,2224.00
2023-03-24T06:31:05.838Z,3420.00
2023-03-24T06:32:05.785Z,3680.00
2023-03-24T06:33:08.094Z,4052.00
2023-03-24T06:34:05.779Z,4492.00
2023-03-24T06:35:05.799Z,3832.00
2023-03-24T06:36:05.807Z,2596.00
2023-03-24T06:37:05.731Z,1864.00
2023-03-24T06:38:05.724Z,1480.00
2023-03-24T06:39:05.767Z,1304.00
2023-03-24T06:40:05.723Z,1468.00
2023-03-24T06:41:05.714Z,1624.00
2023-03-24T06:42:05.693Z,1760.00
2023-03-24T06:43:05.776Z,2160.00
2023-03-24T06:44:05.675Z,2988.00
2023-03-24T06:45:05.655Z,2996.00
2023-03-24T06:46:05.721Z,2308.00
2023-03-24T06:47:05.635Z,2456.00
2023-03-24T06:48:05.660Z,3188.00
2023-03-24T06:49:05.598Z,3432.00
2023-03-24T06:50:05.622Z,2988.00
2023-03-24T06:51:05.594Z,2860.00
2023-03-24T06:52:05.564Z,3532.00
2023-03-24T06:53:05.556Z,4004.00
2023-03-24T06:54:05.545Z,3980.00
2023-03-24T06:55:05.536Z,3884.00
2023-03-24T06:56:05.546Z,3760.00
2023-03-24T06:57:05.558Z,3184.00
2023-03-24T06:58:05.500Z,2876.00
2023-03-24T06:59:05.529Z,2880.00
2023-03-24T07:00:05.498Z,3716.00
2023-03-24T07:01:05.466Z,4928.00
2023-03-24T07:02:05.556Z,5928.00
2023-03-24T07:03:05.508Z,6212.00
2023-03-24T07:04:05.494Z,6008.00
2023-03-24T07:05:05.419Z,5932.00
2023-03-24T07:06:05.413Z,5744.00
2023-03-24T07:07:30.910Z,5520.00
2023-03-24T07:08:34.074Z,5440.00
2023-03-24T07:09:06.379Z,5788.00
2023-03-24T07:10:05.369Z,6188.00
2023-03-24T07:11:05.421Z,6668.00
2023-03-24T07:12:05.343Z,7488.00
2023-03-24T07:13:05.348Z,8216.00
2023-03-24T07:14:06.122Z,9052.00
2023-03-24T07:15:05.347Z,9832.00
2023-03-24T07:16:05.347Z,9712.00
2023-03-24T07:17:05.286Z,8640.00
2023-03-24T07:18:05.305Z,7400.00
2023-03-24T07:19:05.277Z,6060.00
2023-03-24T07:20:05.258Z,5104.00
2023-03-24T07:21:05.282Z,4712.00
2023-03-24T07:22:05.231Z,4584.00
2023-03-24T07:23:05.310Z,4680.00
2023-03-24T07:24:05.228Z,5400.00
2023-03-24T07:25:05.196Z,6820.00
2023-03-24T07:26:05.195Z,8792.00
2023-03-24T07:27:05.172Z,10172.00
2023-03-24T07:28:05.175Z,11196.00
2023-03-24T07:29:05.147Z,13540.00
2023-03-24T07:30:05.277Z,10840.00
2023-03-24T07:31:05.195Z,10660.00
2023-03-24T07:32:05.141Z,11076.00
2023-03-24T07:33:05.140Z,14200.00
2023-03-24T07:34:05.089Z,10620.00
2023-03-24T07:35:05.184Z,13152.00
2023-03-24T07:36:05.184Z,16064.00
2023-03-24T07:37:05.076Z,15936.00
2023-03-24T07:38:05.052Z,41664.00
2023-03-24T07:39:05.035Z,36032.00
2023-03-24T07:40:05.040Z,30304.00
2023-03-24T07:41:05.016Z,46144.00
2023-03-24T07:42:05.004Z,33120.00
2023-03-24T07:43:05.563Z,16032.00
2023-03-24T07:44:04.994Z,11024.00
2023-03-24T07:45:04.973Z,10336.00
2023-03-24T07:46:05.072Z,9584.00
2023-03-24T07:47:04.962Z,7892.00
2023-03-24T07:48:05.002Z,6476.00
2023-03-24T07:49:18.166Z,6200.00
2023-03-24T07:50:05.917Z,6980.00
2023-03-24T07:51:04.919Z,7908.00
2023-03-24T07:52:05.547Z,8428.00
2023-03-24T07:53:04.898Z,8048.00
2023-03-24T07:54:05.553Z,7884.00
2023-03-24T07:55:05.319Z,7724.00
2023-03-24T07:56:04.860Z,7412.00
2023-03-24T07:57:04.848Z,7056.00
2023-03-24T07:58:04.828Z,6740.00
2023-03-24T07:59:04.836Z,6764.00
2023-03-24T08:00:04.807Z,7456.00
2023-03-24T08:01:04.816Z,8320.00
2023-03-24T08:02:04.944Z,8776.00
2023-03-24T08:03:04.938Z,8120.00
2023-03-24T08:04:04.872Z,7236.00
2023-03-24T08:05:04.760Z,6908.00
2023-03-24T08:06:04.737Z,6664.00
2023-03-24T08:07:04.737Z,6336.00
2023-03-24T08:08:04.716Z,5944.00
2023-03-24T08:09:04.703Z,5628.00
2023-03-24T08:10:04.693Z,5336.00
2023-03-24T08:11:04.691Z,4924.00
2023-03-24T08:12:17.378Z,4380.00
2023-03-24T08:13:05.805Z,4252.00
2023-03-24T08:14:04.645Z,4584.00
2023-03-24T08:15:04.634Z,4948.00
2023-03-24T08:16:04.629Z,5276.00
2023-03-24T08:17:04.886Z,5252.00
2023-03-24T08:18:04.628Z,5220.00
2023-03-24T08:19:04.597Z,5208.00
2023-03-24T08:20:05.975Z,5356.00
2023-03-24T08:21:04.578Z,5240.00
2023-03-24T08:22:04.576Z,5072.00
2023-03-24T08:23:04.643Z,4712.00
2023-03-24T08:24:04.535Z,4384.00
2023-03-24T08:25:04.535Z,3992.00
2023-03-24T08:26:04.517Z,3700.00
2023-03-24T08:27:04.497Z,3408.00
2023-03-24T08:28:04.497Z,3312.00
2023-03-24T08:29:04.480Z,3788.00
2023-03-24T08:30:04.699Z,3724.00
2023-03-24T08:31:04.476Z,3312.00
2023-03-24T08:32:04.628Z,2980.00
2023-03-24T08:33:04.465Z,2892.00
2023-03-24T08:34:04.423Z,3148.00
2023-03-24T08:35:04.425Z,3376.00
2023-03-24T08:36:04.463Z,3604.00
2023-03-24T08:37:04.384Z,3432.00
2023-03-24T08:38:06.881Z,3096.00
2023-03-24T08:39:04.369Z,2952.00
2023-03-24T08:40:04.384Z,2916.00
2023-03-24T08:41:04.337Z,3152.00
2023-03-24T08:42:04.327Z,3812.00
2023-03-24T08:43:04.326Z,4168.00
2023-03-24T08:44:06.835Z,4384.00
2023-03-24T08:45:04.308Z,4464.00
2023-03-24T08:46:04.296Z,4416.00
2023-03-24T08:47:04.275Z,4056.00
2023-03-24T08:48:04.293Z,3524.00
2023-03-24T08:49:04.408Z,3012.00
2023-03-24T08:50:04.249Z,2540.00
2023-03-24T08:51:04.267Z,2300.00
2023-03-24T08:52:04.238Z,2336.00
2023-03-24T08:53:04.212Z,2576.00
2023-03-24T08:54:04.188Z,3068.00
2023-03-24T08:55:04.198Z,3888.00
2023-03-24T08:56:04.199Z,4584.00
2023-03-24T08:57:04.197Z,4580.00
2023-03-24T08:58:04.160Z,4264.00
2023-03-24T08:59:04.147Z,4328.00
2023-03-24T09:00:04.122Z,4708.00
2023-03-24T09:01:04.111Z,5228.00
2023-03-24T09:02:04.120Z,5528.00
2023-03-24T09:03:04.300Z,5720.00
2023-03-24T09:04:04.089Z,5848.00
2023-03-24T09:05:04.183Z,6144.00
2023-03-24T09:06:04.058Z,6164.00
2023-03-24T09:07:04.038Z,6124.00
2023-03-24T09:08:04.095Z,5872.00
2023-03-24T09:09:04.021Z,5632.00
2023-03-24T09:10:04.017Z,5404.00
2023-03-24T09:11:04.006Z,5072.00
2023-03-24T09:12:04.000Z,4948.00
2023-03-24T09:13:03.974Z,5624.00
2023-03-24T09:14:03.974Z,6696.00
2023-03-24T09:15:03.964Z,6716.00
2023-03-24T09:16:03.962Z,5808.00
2023-03-24T09:17:04.012Z,5228.00
2023-03-24T09:18:03.978Z,4776.00
2023-03-24T09:19:03.916Z,4760.00
2023-03-24T09:20:03.893Z,4120.00
2023-03-24T09:21:03.884Z,3480.00
2023-03-24T09:22:03.890Z,3104.00
2023-03-24T09:23:03.874Z,3028.00
2023-03-24T09:24:03.888Z,3328.00
2023-03-24T09:25:03.831Z,3248.00
2023-03-24T09:26:03.825Z,3460.00
2023-03-24T09:27:03.814Z,3844.00
2023-03-24T09:28:03.802Z,3736.00
2023-03-24T09:29:03.815Z,3780.00
2023-03-24T09:30:03.788Z,4012.00
2023-03-24T09:31:03.883Z,4148.00
2023-03-24T09:32:03.758Z,3928.00
2023-03-24T09:33:03.844Z,3756.00
2023-03-24T09:34:04.288Z,3904.00
2023-03-24T09:35:03.745Z,4068.00
2023-03-24T09:36:03.732Z,4248.00
2023-03-24T09:37:03.708Z,4740.00
2023-03-24T09:38:03.713Z,5056.00
2023-03-24T09:39:03.813Z,4788.00
2023-03-24T09:40:03.722Z,5320.00
2023-03-24T09:41:03.849Z,6788.00
2023-03-24T09:42:03.640Z,8572.00
2023-03-24T09:43:03.626Z,10376.00
2023-03-24T09:44:03.642Z,12044.00
2023-03-24T09:45:03.612Z,15432.00
2023-03-24T09:46:03.593Z,20544.00
2023-03-24T09:47:03.658Z,33984.00
2023-03-24T09:48:03.585Z,30208.00
2023-03-24T09:49:03.567Z,29536.00
2023-03-24T09:50:03.578Z,29024.00
2023-03-24T09:51:03.625Z,40480.00
2023-03-24T09:52:03.547Z,26592.00
2023-03-24T09:53:03.533Z,58560.00
2023-03-24T09:54:03.501Z,22752.00
2023-03-24T09:55:11.131Z,21184.00
2023-03-24T09:56:03.487Z,20512.00
2023-03-24T09:57:03.511Z,21824.00
2023-03-24T09:58:03.464Z,22144.00
2023-03-24T09:59:03.453Z,49248.00
2023-03-24T10:00:04.141Z,18208.00
2023-03-24T10:01:03.500Z,14876.00
2023-03-24T10:02:03.435Z,12812.00
2023-03-24T10:03:03.448Z,11776.00
2023-03-24T10:04:03.674Z,12664.00
2023-03-24T10:05:03.390Z,12956.00
2023-03-24T10:06:03.390Z,11912.00
2023-03-24T10:07:03.356Z,9464.00
2023-03-24T10:08:03.351Z,7368.00
2023-03-24T10:09:03.338Z,9752.00
2023-03-24T10:10:03.411Z,9872.00
2023-03-24T10:11:03.351Z,7096.00
2023-03-24T10:12:03.312Z,9236.00
2023-03-24T10:13:03.392Z,10396.00
2023-03-24T10:14:04.391Z,12200.00
2023-03-24T10:15:03.272Z,13664.00
2023-03-24T10:16:03.263Z,13748.00
2023-03-24T10:17:03.267Z,12356.00
2023-03-24T10:18:03.272Z,8612.00
2023-03-24T10:19:04.079Z,6560.00
2023-03-24T10:20:03.214Z,6584.00
2023-03-24T10:21:03.202Z,7276.00
2023-03-24T10:22:03.273Z,7280.00
2023-03-24T10:23:03.191Z,6556.00
2023-03-24T10:24:03.358Z,6740.00
2023-03-24T10:25:03.262Z,6448.00
2023-03-24T10:26:03.147Z,6468.00
2023-03-24T10:27:03.230Z,7172.00
2023-03-24T10:28:03.141Z,6048.00
2023-03-24T10:29:03.132Z,4580.00
2023-03-24T10:30:03.111Z,3828.00
2023-03-24T10:31:03.235Z,3056.00
2023-03-24T10:32:03.166Z,2396.00
2023-03-24T10:33:03.122Z,2224.00
2023-03-24T10:34:03.060Z,2744.00
2023-03-24T10:35:03.049Z,4348.00
2023-03-24T10:36:03.639Z,6228.00
2023-03-24T10:37:03.080Z,8744.00
2023-03-24T10:38:03.042Z,16544.00
2023-03-24T10:39:12.840Z,27008.00
2023-03-24T10:40:04.013Z,33408.00
2023-03-24T10:41:03.073Z,34624.00
2023-03-24T10:42:02.985Z,32480.00
2023-03-24T10:43:06.774Z,33504.00
2023-03-24T10:44:03.966Z,30944.00
2023-03-24T10:45:02.951Z,32768.00
2023-03-24T10:46:02.947Z,44096.00
2023-03-24T10:47:02.915Z,37856.00
2023-03-24T10:48:02.994Z,25504.00
2023-03-24T10:49:02.915Z,25312.00
2023-03-24T10:50:12.816Z,27520.00
2023-03-24T10:51:03.876Z,29120.00
2023-03-24T10:52:02.871Z,26112.00
2023-03-24T10:53:02.875Z,16192.00
2023-03-24T10:54:03.433Z,13348.00
2023-03-24T10:55:02.837Z,11504.00
2023-03-24T10:56:02.823Z,10440.00
2023-03-24T10:57:02.871Z,10188.00
2023-03-24T10:58:02.814Z,10512.00
2023-03-24T10:59:02.803Z,10676.00
2023-03-24T11:00:02.959Z,9308.00
2023-03-24T11:01:02.881Z,7192.00
2023-03-24T11:02:02.783Z,6416.00
2023-03-24T11:03:02.888Z,6728.00
2023-03-24T11:04:02.724Z,7076.00
2023-03-24T11:05:02.711Z,7900.00
2023-03-24T11:06:02.705Z,7948.00
2023-03-24T11:07:02.803Z,8108.00
2023-03-24T11:08:02.690Z,8668.00
2023-03-24T11:09:02.675Z,9324.00
2023-03-24T11:10:02.672Z,9280.00
2023-03-24T11:11:02.646Z,9028.00
2023-03-24T11:12:02.651Z,9136.00
2023-03-24T11:13:02.655Z,9480.00
2023-03-24T11:14:02.807Z,9864.00
2023-03-24T11:15:14.182Z,10632.00
2023-03-24T11:16:04.142Z,11272.00
2023-03-24T11:17:02.622Z,11724.00
2023-03-24T11:18:02.610Z,11468.00
2023-03-24T11:19:02.549Z,12316.00
2023-03-24T11:20:02.544Z,15596.00
2023-03-24T11:21:02.536Z,19168.00
2023-03-24T11:22:02.539Z,19904.00
2023-03-24T11:23:02.536Z,25184.00
2023-03-24T11:24:02.513Z,24480.00
2023-03-24T11:25:02.496Z,27552.00
2023-03-24T11:26:02.471Z,92960.00
2023-03-24T11:27:02.519Z,38144.00
2023-03-24T11:28:02.483Z,29632.00
2023-03-24T11:29:02.468Z,91552.00
2023-03-24T11:30:02.458Z,85920.00
2023-03-24T11:31:02.530Z,39776.00
2023-03-24T11:32:02.412Z,31936.00
2023-03-24T11:33:02.445Z,35008.00
2023-03-24T11:34:02.384Z,43136.00
2023-03-24T11:35:02.370Z,38144.00
2023-03-24T11:36:05.969Z,33824.00
2023-03-24T11:37:02.390Z,40000.00
2023-03-24T11:38:02.374Z,27808.00
2023-03-24T11:39:02.343Z,29952.00
2023-03-24T11:40:02.321Z,38208.00
2023-03-24T11:41:02.313Z,34944.00
2023-03-24T11:42:02.293Z,37600.00
2023-03-24T11:43:02.434Z,58880.00
2023-03-24T11:44:02.298Z,51776.00
2023-03-24T11:45:02.342Z,74880.00
2023-03-24T11:46:02.325Z,68224.00
2023-03-24T11:47:02.275Z,41344.00
2023-03-24T11:48:02.288Z,26080.00
2023-03-24T11:49:02.224Z,27200.00
2023-03-24T11:50:02.227Z,41696.00
2023-03-24T11:51:02.209Z,24384.00
2023-03-24T11:52:02.180Z,24608.00
2023-03-24T11:53:02.172Z,29984.00
2023-03-24T11:54:02.167Z,41760.00
2023-03-24T11:55:02.165Z,25472.00
2023-03-24T11:56:02.158Z,21408.00
2023-03-24T11:57:02.218Z,22176.00
2023-03-24T11:58:02.116Z,21408.00
2023-03-24T11:59:02.115Z,25440.00
2023-03-24T12:00:02.097Z,26848.00
2023-03-24T12:01:02.102Z,23072.00
2023-03-24T12:02:02.089Z,22976.00
2023-03-24T12:03:02.209Z,21760.00
2023-03-24T12:04:02.166Z,20704.00
2023-03-24T12:05:02.040Z,17600.00
2023-03-24T12:06:02.125Z,14868.00
2023-03-24T12:07:02.040Z,13292.00
2023-03-24T12:08:02.008Z,11792.00
2023-03-24T12:09:01.995Z,10848.00
2023-03-24T12:10:01.992Z,10872.00
2023-03-24T12:11:01.978Z,11444.00
2023-03-24T12:12:08.213Z,11044.00
2023-03-24T12:13:02.950Z,10240.00
2023-03-24T12:14:01.951Z,10604.00
2023-03-24T12:15:01.929Z,10828.00
2023-03-24T12:16:01.950Z,11324.00
2023-03-24T12:17:01.914Z,12320.00
2023-03-24T12:18:01.978Z,12708.00
2023-03-24T12:19:01.905Z,12556.00
2023-03-24T12:20:01.899Z,11076.00
2023-03-24T12:21:01.866Z,9204.00
2023-03-24T12:22:01.862Z,8496.00
2023-03-24T12:23:01.848Z,8824.00
2023-03-24T12:24:01.827Z,10248.00
2023-03-24T12:25:01.842Z,12048.00
2023-03-24T12:26:01.812Z,13180.00
2023-03-24T12:27:01.836Z,13636.00
2023-03-24T12:28:01.816Z,13764.00
2023-03-24T12:29:01.794Z,12672.00
2023-03-24T12:30:01.786Z,13036.00